sensor_id;sensor_type;location;lat;lon;timestamp;P1;durP1;ratioP1;P2;durP2;ratioP2
56893;SDS011;43392;50.078;13.704;2022-09-06T00:02:29;14.32;;;10.63;;
56893;SDS011;43392;50.078;13.704;2022-09-06T00:04:56;15.55;;;10.63;;
56893;SDS011;43392;50.078;13.704;2022-09-06T00:07:25;16.73;;;11.13;;
56893;SDS011;43392;50.078;13.704;2022-09-06T00:09:51;16.15;;;11.30;;
56893;SDS011;43392;50.078;13.704;2022-09-06T00:12:18;15.27;;;10.23;;
56893;SDS011;43392;50.078;13.704;2022-09-06T00:14:45;14.27;;;9.93;;
56893;SDS011;43392;50.078;13.704;2022-09-06T00:17:11;14.98;;;10.50;;
56893;SDS011;43392;50.078;13.704;2022-09-06T00:19:38;11.95;;;10.05;;
56893;SDS011;43392;50.078;13.704;2022-09-06T00:22:05;12.88;;;9.70;;
56893;SDS011;43392;50.078;13.704;2022-09-06T00:24:33;12.73;;;10.32;;
56893;SDS011;43392;50.078;13.704;2022-09-06T00:27:01;14.82;;;10.43;;
56893;SDS011;43392;50.078;13.704;2022-09-06T00:29:27;12.88;;;10.25;;
56893;SDS011;43392;50.078;13.704;2022-09-06T00:31:54;12.68;;;10.10;;
56893;SDS011;43392;50.078;13.704;2022-09-06T00:34:20;13.98;;;10.25;;
56893;SDS011;43392;50.078;13.704;2022-09-06T00:36:47;13.55;;;9.90;;
56893;SDS011;43392;50.078;13.704;2022-09-06T00:39:14;14.05;;;10.40;;
56893;SDS011;43392;50.078;13.704;2022-09-06T00:41:42;13.90;;;10.30;;
56893;SDS011;43392;50.078;13.704;2022-09-06T00:44:08;13.45;;;10.80;;
56893;SDS011;43392;50.078;13.704;2022-09-06T00:46:35;14.05;;;10.43;;
56893;SDS011;43392;50.078;13.704;2022-09-06T00:49:06;14.15;;;10.43;;
56893;SDS011;43392;50.078;13.704;2022-09-06T00:51:36;13.70;;;10.80;;
56893;SDS011;43392;50.078;13.704;2022-09-06T00:54:03;12.68;;;10.15;;
56893;SDS011;43392;50.078;13.704;2022-09-06T00:56:31;12.38;;;9.70;;
56893;SDS011;43392;50.078;13.704;2022-09-06T00:59:01;13.60;;;10.80;;
56893;SDS011;43392;50.078;13.704;2022-09-06T01:01:28;14.23;;;10.73;;
56893;SDS011;43392;50.078;13.704;2022-09-06T01:03:54;13.00;;;10.45;;
56893;SDS011;43392;50.078;13.704;2022-09-06T01:06:22;18.58;;;11.40;;
56893;SDS011;43392;50.078;13.704;2022-09-06T01:08:58;16.33;;;11.13;;
56893;SDS011;43392;50.078;13.704;2022-09-06T01:11:43;15.63;;;10.98;;
56893;SDS011;43392;50.078;13.704;2022-09-06T01:14:28;15.20;;;11.10;;
56893;SDS011;43392;50.078;13.704;2022-09-06T01:17:07;20.73;;;13.50;;
56893;SDS011;43392;50.078;13.704;2022-09-06T01:22:52;17.00;;;12.35;;
56893;SDS011;43392;50.078;13.704;2022-09-06T01:25:35;24.90;;;15.85;;
56893;SDS011;43392;50.078;13.704;2022-09-06T01:28:28;24.38;;;16.40;;
56893;SDS011;43392;50.078;13.704;2022-09-06T01:31:04;25.13;;;16.20;;
56893;SDS011;43392;50.078;13.704;2022-09-06T01:33:42;23.38;;;15.85;;
56893;SDS011;43392;50.078;13.704;2022-09-06T01:36:16;27.23;;;17.80;;
56893;SDS011;43392;50.078;13.704;2022-09-06T01:38:47;29.67;;;17.35;;
56893;SDS011;43392;50.078;13.704;2022-09-06T01:41:14;24.38;;;14.93;;
56893;SDS011;43392;50.078;13.704;2022-09-06T01:43:42;21.52;;;14.60;;
56893;SDS011;43392;50.078;13.704;2022-09-06T01:46:14;18.33;;;13.15;;
56893;SDS011;43392;50.078;13.704;2022-09-06T01:48:49;18.90;;;13.20;;
56893;SDS011;43392;50.078;13.704;2022-09-06T01:51:28;16.95;;;12.40;;
56893;SDS011;43392;50.078;13.704;2022-09-06T01:54:04;19.45;;;12.93;;
56893;SDS011;43392;50.078;13.704;2022-09-06T01:56:46;21.52;;;14.50;;
56893;SDS011;43392;50.078;13.704;2022-09-06T01:59:27;23.10;;;15.85;;
56893;SDS011;43392;50.078;13.704;2022-09-06T02:02:05;20.52;;;15.73;;
56893;SDS011;43392;50.078;13.704;2022-09-06T02:04:39;24.95;;;16.10;;
56893;SDS011;43392;50.078;13.704;2022-09-06T02:07:12;18.55;;;13.18;;
56893;SDS011;43392;50.078;13.704;2022-09-06T02:09:43;17.13;;;12.80;;
56893;SDS011;43392;50.078;13.704;2022-09-06T02:12:12;15.52;;;12.02;;
56893;SDS011;43392;50.078;13.704;2022-09-06T02:14:44;18.77;;;13.03;;
56893;SDS011;43392;50.078;13.704;2022-09-06T02:17:16;20.20;;;13.55;;
56893;SDS011;43392;50.078;13.704;2022-09-06T02:19:48;18.67;;;13.20;;
56893;SDS011;43392;50.078;13.704;2022-09-06T02:22:21;18.20;;;13.02;;
56893;SDS011;43392;50.078;13.704;2022-09-06T02:24:51;18.15;;;13.32;;
56893;SDS011;43392;50.078;13.704;2022-09-06T02:27:20;18.48;;;12.65;;
56893;SDS011;43392;50.078;13.704;2022-09-06T02:29:48;17.33;;;13.10;;
56893;SDS011;43392;50.078;13.704;2022-09-06T02:32:16;16.95;;;13.18;;
56893;SDS011;43392;50.078;13.704;2022-09-06T02:34:46;18.92;;;13.73;;
56893;SDS011;43392;50.078;13.704;2022-09-06T02:37:13;17.08;;;13.27;;
56893;SDS011;43392;50.078;13.704;2022-09-06T02:39:41;18.30;;;13.68;;
56893;SDS011;43392;50.078;13.704;2022-09-06T02:42:09;21.00;;;13.82;;
56893;SDS011;43392;50.078;13.704;2022-09-06T02:44:38;17.70;;;13.55;;
56893;SDS011;43392;50.078;13.704;2022-09-06T02:47:06;19.15;;;13.93;;
56893;SDS011;43392;50.078;13.704;2022-09-06T02:49:33;19.55;;;13.30;;
56893;SDS011;43392;50.078;13.704;2022-09-06T02:52:00;18.08;;;12.40;;
56893;SDS011;43392;50.078;13.704;2022-09-06T02:54:26;16.83;;;12.75;;
56893;SDS011;43392;50.078;13.704;2022-09-06T02:56:53;19.05;;;13.07;;
56893;SDS011;43392;50.078;13.704;2022-09-06T02:59:19;18.33;;;12.25;;
56893;SDS011;43392;50.078;13.704;2022-09-06T03:01:46;18.00;;;12.40;;
56893;SDS011;43392;50.078;13.704;2022-09-06T03:04:14;17.23;;;12.45;;
56893;SDS011;43392;50.078;13.704;2022-09-06T03:06:41;17.35;;;11.70;;
56893;SDS011;43392;50.078;13.704;2022-09-06T03:09:07;16.08;;;9.70;;
56893;SDS011;43392;50.078;13.704;2022-09-06T03:11:34;15.52;;;10.73;;
56893;SDS011;43392;50.078;13.704;2022-09-06T03:14:01;14.23;;;9.60;;
56893;SDS011;43392;50.078;13.704;2022-09-06T03:16:27;14.18;;;10.02;;
56893;SDS011;43392;50.078;13.704;2022-09-06T03:18:54;13.65;;;10.45;;
56893;SDS011;43392;50.078;13.704;2022-09-06T03:21:22;14.50;;;10.57;;
56893;SDS011;43392;50.078;13.704;2022-09-06T03:23:49;13.77;;;10.18;;
56893;SDS011;43392;50.078;13.704;2022-09-06T03:26:16;14.98;;;10.90;;
56893;SDS011;43392;50.078;13.704;2022-09-06T03:28:43;14.68;;;11.10;;
56893;SDS011;43392;50.078;13.704;2022-09-06T03:31:09;16.77;;;10.48;;
56893;SDS011;43392;50.078;13.704;2022-09-06T03:33:36;18.70;;;11.50;;
56893;SDS011;43392;50.078;13.704;2022-09-06T03:36:03;15.13;;;12.05;;
56893;SDS011;43392;50.078;13.704;2022-09-06T03:38:31;15.25;;;11.20;;
56893;SDS011;43392;50.078;13.704;2022-09-06T03:40:58;16.80;;;11.50;;
56893;SDS011;43392;50.078;13.704;2022-09-06T03:43:26;17.33;;;11.35;;
56893;SDS011;43392;50.078;13.704;2022-09-06T03:45:54;16.80;;;11.60;;
56893;SDS011;43392;50.078;13.704;2022-09-06T03:48:22;16.02;;;11.65;;
56893;SDS011;43392;50.078;13.704;2022-09-06T03:50:53;19.15;;;12.13;;
56893;SDS011;43392;50.078;13.704;2022-09-06T03:53:21;18.27;;;11.75;;
56893;SDS011;43392;50.078;13.704;2022-09-06T03:55:50;17.02;;;12.20;;
56893;SDS011;43392;50.078;13.704;2022-09-06T03:58:19;18.50;;;12.45;;
56893;SDS011;43392;50.078;13.704;2022-09-06T04:00:47;17.85;;;13.07;;
56893;SDS011;43392;50.078;13.704;2022-09-06T04:03:14;16.63;;;12.10;;
56893;SDS011;43392;50.078;13.704;2022-09-06T04:05:43;17.50;;;11.95;;
56893;SDS011;43392;50.078;13.704;2022-09-06T04:08:11;16.02;;;12.48;;
56893;SDS011;43392;50.078;13.704;2022-09-06T04:10:37;18.00;;;12.80;;
56893;SDS011;43392;50.078;13.704;2022-09-06T04:13:05;20.55;;;13.60;;
56893;SDS011;43392;50.078;13.704;2022-09-06T04:15:32;17.55;;;13.18;;
56893;SDS011;43392;50.078;13.704;2022-09-06T04:17:59;17.50;;;13.75;;
56893;SDS011;43392;50.078;13.704;2022-09-06T04:20:25;19.17;;;13.55;;
56893;SDS011;43392;50.078;13.704;2022-09-06T04:22:52;19.42;;;13.35;;
56893;SDS011;43392;50.078;13.704;2022-09-06T04:25:18;16.67;;;12.75;;
56893;SDS011;43392;50.078;13.704;2022-09-06T04:27:45;17.80;;;13.30;;
56893;SDS011;43392;50.078;13.704;2022-09-06T04:30:13;20.17;;;12.05;;
56893;SDS011;43392;50.078;13.704;2022-09-06T04:32:39;17.85;;;12.63;;
56893;SDS011;43392;50.078;13.704;2022-09-06T04:35:06;15.50;;;11.85;;
56893;SDS011;43392;50.078;13.704;2022-09-06T04:37:34;17.70;;;12.63;;
56893;SDS011;43392;50.078;13.704;2022-09-06T04:40:00;19.75;;;12.98;;
56893;SDS011;43392;50.078;13.704;2022-09-06T04:42:27;17.63;;;12.50;;
56893;SDS011;43392;50.078;13.704;2022-09-06T04:44:54;14.93;;;12.27;;
56893;SDS011;43392;50.078;13.704;2022-09-06T04:47:22;18.77;;;11.70;;
56893;SDS011;43392;50.078;13.704;2022-09-06T04:49:49;20.48;;;12.48;;
56893;SDS011;43392;50.078;13.704;2022-09-06T04:52:16;15.02;;;11.55;;
56893;SDS011;43392;50.078;13.704;2022-09-06T04:54:43;21.88;;;11.95;;
56893;SDS011;43392;50.078;13.704;2022-09-06T04:57:09;16.08;;;10.68;;
56893;SDS011;43392;50.078;13.704;2022-09-06T04:59:36;20.00;;;11.80;;
56893;SDS011;43392;50.078;13.704;2022-09-06T05:02:02;16.38;;;12.80;;
56893;SDS011;43392;50.078;13.704;2022-09-06T05:04:31;21.50;;;14.25;;
56893;SDS011;43392;50.078;13.704;2022-09-06T05:07:00;18.25;;;14.35;;
56893;SDS011;43392;50.078;13.704;2022-09-06T05:09:28;19.75;;;14.02;;
56893;SDS011;43392;50.078;13.704;2022-09-06T05:11:55;24.38;;;15.95;;
56893;SDS011;43392;50.078;13.704;2022-09-06T05:14:22;22.98;;;15.23;;
56893;SDS011;43392;50.078;13.704;2022-09-06T05:16:49;26.30;;;16.95;;
56893;SDS011;43392;50.078;13.704;2022-09-06T05:19:15;27.13;;;18.60;;
56893;SDS011;43392;50.078;13.704;2022-09-06T05:21:44;26.38;;;18.45;;
56893;SDS011;43392;50.078;13.704;2022-09-06T05:24:11;22.08;;;17.55;;
56893;SDS011;43392;50.078;13.704;2022-09-06T05:26:37;25.63;;;18.20;;
56893;SDS011;43392;50.078;13.704;2022-09-06T05:29:04;28.38;;;19.48;;
56893;SDS011;43392;50.078;13.704;2022-09-06T05:31:31;30.20;;;19.90;;
56893;SDS011;43392;50.078;13.704;2022-09-06T05:33:59;29.73;;;20.40;;
56893;SDS011;43392;50.078;13.704;2022-09-06T05:36:26;27.67;;;18.58;;
56893;SDS011;43392;50.078;13.704;2022-09-06T05:38:55;29.70;;;18.88;;
56893;SDS011;43392;50.078;13.704;2022-09-06T05:41:23;29.23;;;18.50;;
56893;SDS011;43392;50.078;13.704;2022-09-06T05:43:50;27.15;;;18.73;;
56893;SDS011;43392;50.078;13.704;2022-09-06T05:46:16;24.17;;;17.33;;
56893;SDS011;43392;50.078;13.704;2022-09-06T05:48:43;26.67;;;17.70;;
56893;SDS011;43392;50.078;13.704;2022-09-06T05:51:17;24.08;;;17.80;;
56893;SDS011;43392;50.078;13.704;2022-09-06T05:53:43;28.75;;;19.20;;
56893;SDS011;43392;50.078;13.704;2022-09-06T05:56:12;29.42;;;19.55;;
56893;SDS011;43392;50.078;13.704;2022-09-06T05:58:39;28.40;;;19.30;;
56893;SDS011;43392;50.078;13.704;2022-09-06T06:01:06;24.25;;;18.27;;
56893;SDS011;43392;50.078;13.704;2022-09-06T06:03:39;22.08;;;17.02;;
56893;SDS011;43392;50.078;13.704;2022-09-06T06:06:07;23.88;;;17.90;;
56893;SDS011;43392;50.078;13.704;2022-09-06T06:08:34;22.92;;;16.40;;
56893;SDS011;43392;50.078;13.704;2022-09-06T06:11:01;22.95;;;16.80;;
56893;SDS011;43392;50.078;13.704;2022-09-06T06:13:29;20.13;;;16.60;;
56893;SDS011;43392;50.078;13.704;2022-09-06T06:15:59;21.13;;;17.10;;
56893;SDS011;43392;50.078;13.704;2022-09-06T06:18:26;21.27;;;17.83;;
56893;SDS011;43392;50.078;13.704;2022-09-06T06:21:05;23.83;;;16.60;;
56893;SDS011;43392;50.078;13.704;2022-09-06T06:23:32;24.73;;;17.27;;
56893;SDS011;43392;50.078;13.704;2022-09-06T06:25:59;23.75;;;17.63;;
56893;SDS011;43392;50.078;13.704;2022-09-06T06:28:25;21.30;;;17.73;;
56893;SDS011;43392;50.078;13.704;2022-09-06T06:30:53;20.25;;;16.90;;
56893;SDS011;43392;50.078;13.704;2022-09-06T06:33:20;21.25;;;16.77;;
56893;SDS011;43392;50.078;13.704;2022-09-06T06:35:54;22.85;;;17.52;;
56893;SDS011;43392;50.078;13.704;2022-09-06T06:38:22;23.55;;;18.60;;
56893;SDS011;43392;50.078;13.704;2022-09-06T06:40:48;22.65;;;18.73;;
56893;SDS011;43392;50.078;13.704;2022-09-06T06:43:15;23.00;;;18.45;;
56893;SDS011;43392;50.078;13.704;2022-09-06T06:45:42;26.02;;;19.88;;
56893;SDS011;43392;50.078;13.704;2022-09-06T06:48:15;25.98;;;21.13;;
56893;SDS011;43392;50.078;13.704;2022-09-06T06:50:42;27.55;;;20.98;;
56893;SDS011;43392;50.078;13.704;2022-09-06T06:53:09;28.33;;;22.42;;
56893;SDS011;43392;50.078;13.704;2022-09-06T06:55:35;30.10;;;22.30;;
56893;SDS011;43392;50.078;13.704;2022-09-06T06:58:02;30.38;;;22.33;;
56893;SDS011;43392;50.078;13.704;2022-09-06T07:00:29;29.80;;;22.65;;
56893;SDS011;43392;50.078;13.704;2022-09-06T07:02:55;26.85;;;21.58;;
56893;SDS011;43392;50.078;13.704;2022-09-06T07:05:24;31.85;;;23.40;;
56893;SDS011;43392;50.078;13.704;2022-09-06T07:07:51;26.05;;;21.33;;
56893;SDS011;43392;50.078;13.704;2022-09-06T07:10:17;25.63;;;20.05;;
56893;SDS011;43392;50.078;13.704;2022-09-06T07:12:44;22.63;;;18.33;;
56893;SDS011;43392;50.078;13.704;2022-09-06T07:15:11;22.52;;;18.27;;
56893;SDS011;43392;50.078;13.704;2022-09-06T07:17:37;21.55;;;18.58;;
56893;SDS011;43392;50.078;13.704;2022-09-06T07:20:04;19.95;;;16.48;;
56893;SDS011;43392;50.078;13.704;2022-09-06T07:22:34;24.42;;;17.40;;
56893;SDS011;43392;50.078;13.704;2022-09-06T07:25:01;22.90;;;16.95;;
56893;SDS011;43392;50.078;13.704;2022-09-06T07:27:27;22.20;;;16.38;;
56893;SDS011;43392;50.078;13.704;2022-09-06T07:29:54;23.63;;;17.77;;
56893;SDS011;43392;50.078;13.704;2022-09-06T07:32:20;21.65;;;16.13;;
56893;SDS011;43392;50.078;13.704;2022-09-06T07:34:47;23.27;;;17.10;;
56893;SDS011;43392;50.078;13.704;2022-09-06T07:37:14;20.50;;;16.65;;
56893;SDS011;43392;50.078;13.704;2022-09-06T07:39:42;21.17;;;16.48;;
56893;SDS011;43392;50.078;13.704;2022-09-06T07:42:09;20.58;;;16.90;;
56893;SDS011;43392;50.078;13.704;2022-09-06T07:44:35;22.73;;;16.42;;
56893;SDS011;43392;50.078;13.704;2022-09-06T07:47:02;24.15;;;16.05;;
56893;SDS011;43392;50.078;13.704;2022-09-06T07:49:30;24.67;;;16.58;;
56893;SDS011;43392;50.078;13.704;2022-09-06T07:51:57;21.83;;;16.65;;
56893;SDS011;43392;50.078;13.704;2022-09-06T07:54:24;21.55;;;16.40;;
56893;SDS011;43392;50.078;13.704;2022-09-06T07:56:51;21.67;;;16.30;;
56893;SDS011;43392;50.078;13.704;2022-09-06T07:59:18;26.58;;;16.35;;
56893;SDS011;43392;50.078;13.704;2022-09-06T08:01:45;22.50;;;17.05;;
56893;SDS011;43392;50.078;13.704;2022-09-06T08:04:12;27.58;;;16.40;;
56893;SDS011;43392;50.078;13.704;2022-09-06T08:06:40;22.80;;;15.73;;
56893;SDS011;43392;50.078;13.704;2022-09-06T08:09:08;20.80;;;15.75;;
56893;SDS011;43392;50.078;13.704;2022-09-06T08:11:35;21.02;;;15.50;;
56893;SDS011;43392;50.078;13.704;2022-09-06T08:14:05;24.13;;;16.83;;
56893;SDS011;43392;50.078;13.704;2022-09-06T08:16:33;22.80;;;16.73;;
56893;SDS011;43392;50.078;13.704;2022-09-06T08:19:03;20.95;;;15.70;;
56893;SDS011;43392;50.078;13.704;2022-09-06T08:21:32;25.70;;;15.60;;
56893;SDS011;43392;50.078;13.704;2022-09-06T08:23:59;20.90;;;15.70;;
56893;SDS011;43392;50.078;13.704;2022-09-06T08:26:28;19.65;;;15.30;;
56893;SDS011;43392;50.078;13.704;2022-09-06T08:28:56;20.38;;;14.55;;
56893;SDS011;43392;50.078;13.704;2022-09-06T08:31:26;16.77;;;13.38;;
56893;SDS011;43392;50.078;13.704;2022-09-06T08:33:53;17.20;;;12.27;;
56893;SDS011;43392;50.078;13.704;2022-09-06T08:36:20;17.45;;;12.70;;
56893;SDS011;43392;50.078;13.704;2022-09-06T08:38:51;21.90;;;13.30;;
56893;SDS011;43392;50.078;13.704;2022-09-06T08:41:20;18.45;;;12.52;;
56893;SDS011;43392;50.078;13.704;2022-09-06T08:43:51;14.40;;;10.85;;
56893;SDS011;43392;50.078;13.704;2022-09-06T08:46:19;14.43;;;10.75;;
56893;SDS011;43392;50.078;13.704;2022-09-06T08:48:53;14.10;;;10.38;;
56893;SDS011;43392;50.078;13.704;2022-09-06T08:51:32;15.77;;;10.40;;
56893;SDS011;43392;50.078;13.704;2022-09-06T08:54:11;15.15;;;10.88;;
56893;SDS011;43392;50.078;13.704;2022-09-06T08:56:54;13.25;;;10.93;;
56893;SDS011;43392;50.078;13.704;2022-09-06T08:59:27;15.10;;;11.50;;
56893;SDS011;43392;50.078;13.704;2022-09-06T09:02:01;14.75;;;10.60;;
56893;SDS011;43392;50.078;13.704;2022-09-06T09:04:36;11.90;;;9.10;;
56893;SDS011;43392;50.078;13.704;2022-09-06T09:07:05;14.23;;;9.50;;
56893;SDS011;43392;50.078;13.704;2022-09-06T09:09:43;14.65;;;9.35;;
56893;SDS011;43392;50.078;13.704;2022-09-06T09:12:10;12.80;;;9.95;;
56893;SDS011;43392;50.078;13.704;2022-09-06T09:14:43;12.82;;;9.32;;
56893;SDS011;43392;50.078;13.704;2022-09-06T09:17:15;12.70;;;9.43;;
56893;SDS011;43392;50.078;13.704;2022-09-06T09:19:47;11.85;;;9.30;;
56893;SDS011;43392;50.078;13.704;2022-09-06T09:22:15;13.98;;;9.50;;
56893;SDS011;43392;50.078;13.704;2022-09-06T09:24:43;11.40;;;9.15;;
56893;SDS011;43392;50.078;13.704;2022-09-06T09:27:11;14.80;;;9.80;;
56893;SDS011;43392;50.078;13.704;2022-09-06T09:29:55;13.95;;;9.00;;
56893;SDS011;43392;50.078;13.704;2022-09-06T09:32:28;12.02;;;8.75;;
56893;SDS011;43392;50.078;13.704;2022-09-06T09:35:01;10.23;;;8.38;;
56893;SDS011;43392;50.078;13.704;2022-09-06T09:37:41;10.82;;;8.20;;
56893;SDS011;43392;50.078;13.704;2022-09-06T09:40:12;10.20;;;7.70;;
56893;SDS011;43392;50.078;13.704;2022-09-06T09:42:39;13.70;;;7.57;;
56893;SDS011;43392;50.078;13.704;2022-09-06T09:45:20;9.95;;;7.38;;
56893;SDS011;43392;50.078;13.704;2022-09-06T09:47:49;10.40;;;7.43;;
56893;SDS011;43392;50.078;13.704;2022-09-06T09:50:25;11.82;;;7.55;;
56893;SDS011;43392;50.078;13.704;2022-09-06T09:52:54;11.95;;;7.40;;
56893;SDS011;43392;50.078;13.704;2022-09-06T09:55:21;10.05;;;7.68;;
56893;SDS011;43392;50.078;13.704;2022-09-06T09:57:50;11.68;;;7.43;;
56893;SDS011;43392;50.078;13.704;2022-09-06T10:00:32;9.35;;;6.55;;
56893;SDS011;43392;50.078;13.704;2022-09-06T10:02:59;13.75;;;7.10;;
56893;SDS011;43392;50.078;13.704;2022-09-06T10:05:37;12.50;;;7.43;;
56893;SDS011;43392;50.078;13.704;2022-09-06T10:08:05;11.55;;;7.43;;
56893;SDS011;43392;50.078;13.704;2022-09-06T10:10:38;9.80;;;6.95;;
56893;SDS011;43392;50.078;13.704;2022-09-06T10:13:07;9.70;;;7.28;;
56893;SDS011;43392;50.078;13.704;2022-09-06T10:15:43;12.57;;;7.25;;
56893;SDS011;43392;50.078;13.704;2022-09-06T10:18:12;11.15;;;7.07;;
56893;SDS011;43392;50.078;13.704;2022-09-06T10:20:44;8.93;;;6.50;;
56893;SDS011;43392;50.078;13.704;2022-09-06T10:23:21;10.40;;;6.95;;
56893;SDS011;43392;50.078;13.704;2022-09-06T10:25:56;10.20;;;6.53;;
56893;SDS011;43392;50.078;13.704;2022-09-06T10:28:33;13.70;;;6.30;;
56893;SDS011;43392;50.078;13.704;2022-09-06T10:31:07;10.65;;;6.68;;
56893;SDS011;43392;50.078;13.704;2022-09-06T10:33:50;9.55;;;5.88;;
56893;SDS011;43392;50.078;13.704;2022-09-06T10:36:29;9.30;;;6.82;;
56893;SDS011;43392;50.078;13.704;2022-09-06T10:39:01;11.48;;;7.55;;
56893;SDS011;43392;50.078;13.704;2022-09-06T10:41:38;9.50;;;6.65;;
56893;SDS011;43392;50.078;13.704;2022-09-06T10:44:16;12.05;;;6.43;;
56893;SDS011;43392;50.078;13.704;2022-09-06T10:46:58;12.25;;;5.82;;
56893;SDS011;43392;50.078;13.704;2022-09-06T10:49:29;10.70;;;7.32;;
56893;SDS011;43392;50.078;13.704;2022-09-06T10:52:00;10.57;;;6.15;;
56893;SDS011;43392;50.078;13.704;2022-09-06T10:54:31;8.73;;;5.80;;
56893;SDS011;43392;50.078;13.704;2022-09-06T10:57:02;8.02;;;5.95;;
56893;SDS011;43392;50.078;13.704;2022-09-06T10:59:33;7.88;;;5.78;;
56893;SDS011;43392;50.078;13.704;2022-09-06T11:02:10;9.48;;;6.53;;
56893;SDS011;43392;50.078;13.704;2022-09-06T11:04:47;9.10;;;6.47;;
56893;SDS011;43392;50.078;13.704;2022-09-06T11:07:18;9.13;;;5.97;;
56893;SDS011;43392;50.078;13.704;2022-09-06T11:09:53;10.80;;;5.93;;
56893;SDS011;43392;50.078;13.704;2022-09-06T11:14:58;8.70;;;6.13;;
56893;SDS011;43392;50.078;13.704;2022-09-06T11:17:27;8.52;;;6.15;;
56893;SDS011;43392;50.078;13.704;2022-09-06T11:20:01;11.10;;;6.32;;
56893;SDS011;43392;50.078;13.704;2022-09-06T11:22:37;9.20;;;6.07;;
56893;SDS011;43392;50.078;13.704;2022-09-06T11:25:21;7.85;;;5.53;;
56893;SDS011;43392;50.078;13.704;2022-09-06T11:28:10;9.25;;;5.53;;
56893;SDS011;43392;50.078;13.704;2022-09-06T11:30:41;9.55;;;5.85;;
56893;SDS011;43392;50.078;13.704;2022-09-06T11:33:15;8.60;;;5.55;;
56893;SDS011;43392;50.078;13.704;2022-09-06T11:35:47;11.80;;;6.10;;
56893;SDS011;43392;50.078;13.704;2022-09-06T11:38:19;8.30;;;5.78;;
56893;SDS011;43392;50.078;13.704;2022-09-06T11:40:52;7.85;;;5.82;;
56893;SDS011;43392;50.078;13.704;2022-09-06T11:43:44;12.50;;;5.80;;
56893;SDS011;43392;50.078;13.704;2022-09-06T11:49:26;8.85;;;6.22;;
56893;SDS011;43392;50.078;13.704;2022-09-06T11:51:55;8.93;;;5.43;;
56893;SDS011;43392;50.078;13.704;2022-09-06T11:54:24;10.25;;;5.95;;
56893;SDS011;43392;50.078;13.704;2022-09-06T11:56:58;10.30;;;6.57;;
56893;SDS011;43392;50.078;13.704;2022-09-06T11:59:33;7.73;;;5.43;;
56893;SDS011;43392;50.078;13.704;2022-09-06T12:02:04;8.23;;;5.85;;
56893;SDS011;43392;50.078;13.704;2022-09-06T12:07:35;10.38;;;6.28;;
56893;SDS011;43392;50.078;13.704;2022-09-06T12:10:40;10.95;;;6.55;;
56893;SDS011;43392;50.078;13.704;2022-09-06T12:16:01;8.18;;;5.53;;
56893;SDS011;43392;50.078;13.704;2022-09-06T12:21:31;8.98;;;5.32;;
56893;SDS011;43392;50.078;13.704;2022-09-06T12:27:20;11.70;;;6.07;;
56893;SDS011;43392;50.078;13.704;2022-09-06T12:29:49;8.70;;;5.00;;
56893;SDS011;43392;50.078;13.704;2022-09-06T12:32:20;8.88;;;5.85;;
56893;SDS011;43392;50.078;13.704;2022-09-06T12:34:50;9.18;;;5.75;;
56893;SDS011;43392;50.078;13.704;2022-09-06T12:37:28;10.18;;;5.82;;
56893;SDS011;43392;50.078;13.704;2022-09-06T12:39:57;9.07;;;5.80;;
56893;SDS011;43392;50.078;13.704;2022-09-06T12:42:26;10.00;;;6.05;;
56893;SDS011;43392;50.078;13.704;2022-09-06T12:44:53;9.68;;;5.88;;
56893;SDS011;43392;50.078;13.704;2022-09-06T12:47:22;15.02;;;6.57;;
56893;SDS011;43392;50.078;13.704;2022-09-06T12:50:15;8.60;;;5.65;;
56893;SDS011;43392;50.078;13.704;2022-09-06T12:52:47;10.32;;;5.80;;
56893;SDS011;43392;50.078;13.704;2022-09-06T12:55:16;12.60;;;6.32;;
56893;SDS011;43392;50.078;13.704;2022-09-06T12:57:47;9.25;;;5.95;;
56893;SDS011;43392;50.078;13.704;2022-09-06T13:00:16;7.43;;;5.47;;
56893;SDS011;43392;50.078;13.704;2022-09-06T13:02:45;8.50;;;5.60;;
56893;SDS011;43392;50.078;13.704;2022-09-06T13:05:22;9.55;;;5.88;;
56893;SDS011;43392;50.078;13.704;2022-09-06T13:07:50;8.77;;;5.78;;
56893;SDS011;43392;50.078;13.704;2022-09-06T13:10:21;8.77;;;6.00;;
56893;SDS011;43392;50.078;13.704;2022-09-06T13:12:52;7.63;;;5.47;;
56893;SDS011;43392;50.078;13.704;2022-09-06T13:15:22;7.68;;;6.10;;
56893;SDS011;43392;50.078;13.704;2022-09-06T13:17:51;9.80;;;6.00;;
56893;SDS011;43392;50.078;13.704;2022-09-06T13:20:22;11.23;;;6.15;;
56893;SDS011;43392;50.078;13.704;2022-09-06T13:22:52;12.95;;;5.90;;
56893;SDS011;43392;50.078;13.704;2022-09-06T13:25:30;8.95;;;5.70;;
56893;SDS011;43392;50.078;13.704;2022-09-06T13:27:58;8.38;;;6.18;;
56893;SDS011;43392;50.078;13.704;2022-09-06T13:30:32;9.63;;;5.90;;
56893;SDS011;43392;50.078;13.704;2022-09-06T13:33:01;8.80;;;5.43;;
56893;SDS011;43392;50.078;13.704;2022-09-06T13:35:30;10.50;;;6.00;;
56893;SDS011;43392;50.078;13.704;2022-09-06T13:38:18;10.10;;;6.13;;
56893;SDS011;43392;50.078;13.704;2022-09-06T13:40:46;9.30;;;6.15;;
56893;SDS011;43392;50.078;13.704;2022-09-06T13:43:16;8.53;;;6.00;;
56893;SDS011;43392;50.078;13.704;2022-09-06T13:45:47;8.57;;;6.07;;
56893;SDS011;43392;50.078;13.704;2022-09-06T13:48:13;9.52;;;5.90;;
56893;SDS011;43392;50.078;13.704;2022-09-06T13:50:40;10.10;;;6.63;;
56893;SDS011;43392;50.078;13.704;2022-09-06T13:53:07;11.68;;;6.60;;
56893;SDS011;43392;50.078;13.704;2022-09-06T13:55:33;10.85;;;6.82;;
56893;SDS011;43392;50.078;13.704;2022-09-06T13:58:00;16.23;;;7.93;;
56893;SDS011;43392;50.078;13.704;2022-09-06T14:00:29;16.20;;;8.60;;
56893;SDS011;43392;50.078;13.704;2022-09-06T14:03:06;18.45;;;6.38;;
56893;SDS011;43392;50.078;13.704;2022-09-06T14:05:34;8.25;;;3.88;;
56893;SDS011;43392;50.078;13.704;2022-09-06T14:08:03;7.68;;;3.88;;
56893;SDS011;43392;50.078;13.704;2022-09-06T14:10:33;9.43;;;4.65;;
56893;SDS011;43392;50.078;13.704;2022-09-06T14:13:00;14.50;;;5.88;;
56893;SDS011;43392;50.078;13.704;2022-09-06T14:15:26;10.82;;;5.93;;
56893;SDS011;43392;50.078;13.704;2022-09-06T14:17:54;10.60;;;4.55;;
56893;SDS011;43392;50.078;13.704;2022-09-06T14:20:21;6.97;;;4.07;;
56893;SDS011;43392;50.078;13.704;2022-09-06T14:22:47;9.10;;;4.70;;
56893;SDS011;43392;50.078;13.704;2022-09-06T14:25:14;7.28;;;4.38;;
56893;SDS011;43392;50.078;13.704;2022-09-06T14:27:41;6.95;;;4.10;;
56893;SDS011;43392;50.078;13.704;2022-09-06T14:30:08;7.18;;;4.20;;
56893;SDS011;43392;50.078;13.704;2022-09-06T14:32:35;14.60;;;8.77;;
56893;SDS011;43392;50.078;13.704;2022-09-06T14:35:03;14.55;;;7.40;;
56893;SDS011;43392;50.078;13.704;2022-09-06T14:37:30;8.38;;;4.65;;
56893;SDS011;43392;50.078;13.704;2022-09-06T14:39:57;8.60;;;4.30;;
56893;SDS011;43392;50.078;13.704;2022-09-06T14:42:24;7.22;;;4.65;;
56893;SDS011;43392;50.078;13.704;2022-09-06T14:44:52;7.28;;;4.45;;
56893;SDS011;43392;50.078;13.704;2022-09-06T14:47:19;7.72;;;4.10;;
56893;SDS011;43392;50.078;13.704;2022-09-06T14:49:46;8.10;;;4.03;;
56893;SDS011;43392;50.078;13.704;2022-09-06T14:52:14;5.75;;;3.60;;
56893;SDS011;43392;50.078;13.704;2022-09-06T14:54:40;6.80;;;4.28;;